sensor_id;sensor_type;location;lat;lon;timestamp;pressure;altitude;pressure_sealevel;temperature
12918;BMP180;6526;54.312;13.092;2023-01-28T00:00:08;103199.00;;;6.20
12918;BMP180;6526;54.312;13.092;2023-01-28T00:02:35;103186.00;;;6.30
12918;BMP180;6526;54.312;13.092;2023-01-28T00:05:01;103183.00;;;6.10
12918;BMP180;6526;54.312;13.092;2023-01-28T00:07:27;103181.00;;;6.00
12918;BMP180;6526;54.312;13.092;2023-01-28T00:09:53;103194.00;;;6.00
12918;BMP180;6526;54.312;13.092;2023-01-28T00:12:20;103192.00;;;6.00
12918;BMP180;6526;54.312;13.092;2023-01-28T00:14:46;103191.00;;;6.10
12918;BMP180;6526;54.312;13.092;2023-01-28T00:17:13;103197.00;;;6.00
12918;BMP180;6526;54.312;13.092;2023-01-28T00:19:40;103201.00;;;6.00
12918;BMP180;6526;54.312;13.092;2023-01-28T00:22:06;103207.00;;;6.00
12918;BMP180;6526;54.312;13.092;2023-01-28T00:24:32;103202.00;;;6.10
12918;BMP180;6526;54.312;13.092;2023-01-28T00:26:58;103201.00;;;6.00
12918;BMP180;6526;54.312;13.092;2023-01-28T00:29:24;103195.00;;;5.80
12918;BMP180;6526;54.312;13.092;2023-01-28T00:31:50;103195.00;;;5.90
12918;BMP180;6526;54.312;13.092;2023-01-28T00:34:16;103190.00;;;5.90
12918;BMP180;6526;54.312;13.092;2023-01-28T00:36:42;103188.00;;;5.90
12918;BMP180;6526;54.312;13.092;2023-01-28T00:39:14;103186.00;;;6.00
12918;BMP180;6526;54.312;13.092;2023-01-28T00:41:40;103201.00;;;6.10
12918;BMP180;6526;54.312;13.092;2023-01-28T00:44:08;103189.00;;;6.10
12918;BMP180;6526;54.312;13.092;2023-01-28T00:46:34;103190.00;;;6.20
12918;BMP180;6526;54.312;13.092;2023-01-28T00:49:00;103189.00;;;6.20
12918;BMP180;6526;54.312;13.092;2023-01-28T00:51:26;103193.00;;;6.10
12918;BMP180;6526;54.312;13.092;2023-01-28T00:53:52;103202.00;;;6.10
12918;BMP180;6526;54.312;13.092;2023-01-28T00:56:19;103184.00;;;6.10
12918;BMP180;6526;54.312;13.092;2023-01-28T00:58:45;103189.00;;;6.10
12918;BMP180;6526;54.312;13.092;2023-01-28T01:01:14;103188.00;;;6.10
12918;BMP180;6526;54.312;13.092;2023-01-28T01:03:40;103181.00;;;6.10
12918;BMP180;6526;54.312;13.092;2023-01-28T01:06:07;103179.00;;;6.10
12918;BMP180;6526;54.312;13.092;2023-01-28T01:08:33;103189.00;;;6.00
12918;BMP180;6526;54.312;13.092;2023-01-28T01:11:03;103185.00;;;6.00
12918;BMP180;6526;54.312;13.092;2023-01-28T01:13:30;103182.00;;;6.10
12918;BMP180;6526;54.312;13.092;2023-01-28T01:16:11;103184.00;;;6.20
12918;BMP180;6526;54.312;13.092;2023-01-28T01:18:38;103181.00;;;6.00
12918;BMP180;6526;54.312;13.092;2023-01-28T01:21:17;103180.00;;;5.90
12918;BMP180;6526;54.312;13.092;2023-01-28T01:23:45;103184.00;;;5.90
12918;BMP180;6526;54.312;13.092;2023-01-28T01:26:11;103190.00;;;5.90
12918;BMP180;6526;54.312;13.092;2023-01-28T01:28:38;103184.00;;;5.80
12918;BMP180;6526;54.312;13.092;2023-01-28T01:31:06;103189.00;;;5.80
12918;BMP180;6526;54.312;13.092;2023-01-28T01:33:33;103187.00;;;5.80
12918;BMP180;6526;54.312;13.092;2023-01-28T01:35:59;103178.00;;;5.80
12918;BMP180;6526;54.312;13.092;2023-01-28T01:38:26;103185.00;;;5.70
12918;BMP180;6526;54.312;13.092;2023-01-28T01:40:55;103183.00;;;5.70
12918;BMP180;6526;54.312;13.092;2023-01-28T01:43:22;103176.00;;;5.70
12918;BMP180;6526;54.312;13.092;2023-01-28T01:45:57;103165.00;;;5.80
12918;BMP180;6526;54.312;13.092;2023-01-28T01:48:32;103172.00;;;5.80
12918;BMP180;6526;54.312;13.092;2023-01-28T01:51:06;103173.00;;;5.80
12918;BMP180;6526;54.312;13.092;2023-01-28T01:53:40;103179.00;;;5.80
12918;BMP180;6526;54.312;13.092;2023-01-28T01:56:09;103174.00;;;5.70
12918;BMP180;6526;54.312;13.092;2023-01-28T01:58:38;103184.00;;;5.60
12918;BMP180;6526;54.312;13.092;2023-01-28T02:01:05;103180.00;;;5.60
12918;BMP180;6526;54.312;13.092;2023-01-28T02:03:45;103171.00;;;5.60
12918;BMP180;6526;54.312;13.092;2023-01-28T02:06:12;103171.00;;;5.60
12918;BMP180;6526;54.312;13.092;2023-01-28T02:08:39;103175.00;;;5.70
12918;BMP180;6526;54.312;13.092;2023-01-28T02:11:06;103168.00;;;5.70
12918;BMP180;6526;54.312;13.092;2023-01-28T02:13:40;103163.00;;;5.70
12918;BMP180;6526;54.312;13.092;2023-01-28T02:16:07;103169.00;;;5.70
12918;BMP180;6526;54.312;13.092;2023-01-28T02:18:34;103161.00;;;5.70
12918;BMP180;6526;54.312;13.092;2023-01-28T02:27:17;103171.00;;;5.80
12918;BMP180;6526;54.312;13.092;2023-01-28T02:30:15;103181.00;;;5.70
12918;BMP180;6526;54.312;13.092;2023-01-28T02:33:00;103161.00;;;5.60
12918;BMP180;6526;54.312;13.092;2023-01-28T02:35:35;103166.00;;;5.60
12918;BMP180;6526;54.312;13.092;2023-01-28T02:40:37;103163.00;;;5.70
12918;BMP180;6526;54.312;13.092;2023-01-28T02:43:40;103161.00;;;5.50
12918;BMP180;6526;54.312;13.092;2023-01-28T02:49:17;103157.00;;;5.60
12918;BMP180;6526;54.312;13.092;2023-01-28T02:52:21;103148.00;;;5.60
12918;BMP180;6526;54.312;13.092;2023-01-28T02:58:00;103142.00;;;5.70
12918;BMP180;6526;54.312;13.092;2023-01-28T03:00:39;103147.00;;;5.70
12918;BMP180;6526;54.312;13.092;2023-01-28T03:03:14;103137.00;;;5.70
12918;BMP180;6526;54.312;13.092;2023-01-28T03:05:54;103139.00;;;5.60
12918;BMP180;6526;54.312;13.092;2023-01-28T03:08:42;103134.00;;;5.50
12918;BMP180;6526;54.312;13.092;2023-01-28T03:11:31;103124.00;;;5.60
12918;BMP180;6526;54.312;13.092;2023-01-28T03:14:18;103127.00;;;5.70
12918;BMP180;6526;54.312;13.092;2023-01-28T03:17:06;103132.00;;;5.70
12918;BMP180;6526;54.312;13.092;2023-01-28T03:19:52;103140.00;;;5.80
12918;BMP180;6526;54.312;13.092;2023-01-28T03:22:38;103133.00;;;5.70
12918;BMP180;6526;54.312;13.092;2023-01-28T03:25:26;103143.00;;;5.80
12918;BMP180;6526;54.312;13.092;2023-01-28T03:28:15;103130.00;;;5.80
12918;BMP180;6526;54.312;13.092;2023-01-28T03:31:11;103137.00;;;5.80
12918;BMP180;6526;54.312;13.092;2023-01-28T03:33:57;103137.00;;;5.70
12918;BMP180;6526;54.312;13.092;2023-01-28T03:36:44;103144.00;;;5.70
12918;BMP180;6526;54.312;13.092;2023-01-28T03:39:26;103148.00;;;5.70
12918;BMP180;6526;54.312;13.092;2023-01-28T03:44:23;103131.00;;;5.70
12918;BMP180;6526;54.312;13.092;2023-01-28T03:47:08;103132.00;;;5.70
12918;BMP180;6526;54.312;13.092;2023-01-28T03:49:40;103140.00;;;5.80
12918;BMP180;6526;54.312;13.092;2023-01-28T03:52:06;103130.00;;;5.70
12918;BMP180;6526;54.312;13.092;2023-01-28T03:54:32;103134.00;;;5.70
12918;BMP180;6526;54.312;13.092;2023-01-28T03:56:58;103142.00;;;5.70
12918;BMP180;6526;54.312;13.092;2023-01-28T03:59:24;103141.00;;;5.70
12918;BMP180;6526;54.312;13.092;2023-01-28T04:01:50;103130.00;;;5.60
12918;BMP180;6526;54.312;13.092;2023-01-28T04:04:16;103145.00;;;5.50
12918;BMP180;6526;54.312;13.092;2023-01-28T04:06:50;103129.00;;;5.40
12918;BMP180;6526;54.312;13.092;2023-01-28T04:09:16;103126.00;;;5.30
12918;BMP180;6526;54.312;13.092;2023-01-28T04:11:42;103126.00;;;5.40
12918;BMP180;6526;54.312;13.092;2023-01-28T04:14:08;103141.00;;;5.40
12918;BMP180;6526;54.312;13.092;2023-01-28T04:16:34;103129.00;;;5.40
12918;BMP180;6526;54.312;13.092;2023-01-28T04:19:00;103122.00;;;5.40
12918;BMP180;6526;54.312;13.092;2023-01-28T04:21:26;103129.00;;;5.30
12918;BMP180;6526;54.312;13.092;2023-01-28T04:23:52;103132.00;;;5.30
12918;BMP180;6526;54.312;13.092;2023-01-28T04:26:18;103115.00;;;5.40
12918;BMP180;6526;54.312;13.092;2023-01-28T04:28:44;103129.00;;;5.40
12918;BMP180;6526;54.312;13.092;2023-01-28T04:31:10;103135.00;;;5.40
12918;BMP180;6526;54.312;13.092;2023-01-28T04:33:36;103127.00;;;5.40
12918;BMP180;6526;54.312;13.092;2023-01-28T04:36:03;103122.00;;;5.30
12918;BMP180;6526;54.312;13.092;2023-01-28T04:38:29;103143.00;;;5.30
12918;BMP180;6526;54.312;13.092;2023-01-28T04:40:55;103128.00;;;5.30
12918;BMP180;6526;54.312;13.092;2023-01-28T04:43:21;103118.00;;;5.30
12918;BMP180;6526;54.312;13.092;2023-01-28T04:45:48;103121.00;;;5.30
12918;BMP180;6526;54.312;13.092;2023-01-28T04:48:15;103129.00;;;5.40
12918;BMP180;6526;54.312;13.092;2023-01-28T04:50:41;103128.00;;;5.40
12918;BMP180;6526;54.312;13.092;2023-01-28T04:53:08;103115.00;;;5.40
12918;BMP180;6526;54.312;13.092;2023-01-28T04:55:34;103120.00;;;5.40
12918;BMP180;6526;54.312;13.092;2023-01-28T04:58:00;103122.00;;;5.40
12918;BMP180;6526;54.312;13.092;2023-01-28T05:00:27;103126.00;;;5.40
12918;BMP180;6526;54.312;13.092;2023-01-28T05:02:53;103121.00;;;5.40
12918;BMP180;6526;54.312;13.092;2023-01-28T05:05:19;103120.00;;;5.50
12918;BMP180;6526;54.312;13.092;2023-01-28T05:07:53;103137.00;;;5.40
12918;BMP180;6526;54.312;13.092;2023-01-28T05:10:21;103125.00;;;5.40
12918;BMP180;6526;54.312;13.092;2023-01-28T05:12:48;103122.00;;;5.30
12918;BMP180;6526;54.312;13.092;2023-01-28T05:15:15;103127.00;;;5.40
12918;BMP180;6526;54.312;13.092;2023-01-28T05:17:42;103135.00;;;5.40
12918;BMP180;6526;54.312;13.092;2023-01-28T05:20:10;103076.00;;;5.40
12918;BMP180;6526;54.312;13.092;2023-01-28T05:22:38;103127.00;;;5.30
12918;BMP180;6526;54.312;13.092;2023-01-28T05:25:05;103113.00;;;5.20
12918;BMP180;6526;54.312;13.092;2023-01-28T05:27:31;103109.00;;;5.10
12918;BMP180;6526;54.312;13.092;2023-01-28T05:29:58;103100.00;;;5.00
12918;BMP180;6526;54.312;13.092;2023-01-28T05:32:25;103112.00;;;5.00
12918;BMP180;6526;54.312;13.092;2023-01-28T05:34:51;103114.00;;;5.10
12918;BMP180;6526;54.312;13.092;2023-01-28T05:37:17;103092.00;;;5.10
12918;BMP180;6526;54.312;13.092;2023-01-28T05:39:43;103116.00;;;5.10
12918;BMP180;6526;54.312;13.092;2023-01-28T05:42:09;103123.00;;;5.10
12918;BMP180;6526;54.312;13.092;2023-01-28T05:44:35;103101.00;;;5.10
12918;BMP180;6526;54.312;13.092;2023-01-28T05:47:02;103107.00;;;5.00
12918;BMP180;6526;54.312;13.092;2023-01-28T05:49:28;103101.00;;;5.00
12918;BMP180;6526;54.312;13.092;2023-01-28T05:51:54;103104.00;;;5.00
12918;BMP180;6526;54.312;13.092;2023-01-28T05:54:21;103097.00;;;5.10
12918;BMP180;6526;54.312;13.092;2023-01-28T05:56:47;103107.00;;;5.00
12918;BMP180;6526;54.312;13.092;2023-01-28T05:59:13;103091.00;;;5.00
12918;BMP180;6526;54.312;13.092;2023-01-28T06:01:39;103095.00;;;5.00
12918;BMP180;6526;54.312;13.092;2023-01-28T06:04:06;103108.00;;;4.90
12918;BMP180;6526;54.312;13.092;2023-01-28T06:06:32;103102.00;;;4.90
12918;BMP180;6526;54.312;13.092;2023-01-28T06:08:58;103097.00;;;4.80
12918;BMP180;6526;54.312;13.092;2023-01-28T06:11:24;103088.00;;;4.80
12918;BMP180;6526;54.312;13.092;2023-01-28T06:13:50;103102.00;;;4.80
12918;BMP180;6526;54.312;13.092;2023-01-28T06:16:16;103102.00;;;4.70
12918;BMP180;6526;54.312;13.092;2023-01-28T06:18:42;103100.00;;;4.60
12918;BMP180;6526;54.312;13.092;2023-01-28T06:21:09;103095.00;;;4.70
12918;BMP180;6526;54.312;13.092;2023-01-28T06:23:35;103092.00;;;4.80
12918;BMP180;6526;54.312;13.092;2023-01-28T06:26:01;103097.00;;;4.80
12918;BMP180;6526;54.312;13.092;2023-01-28T06:28:27;103090.00;;;4.70
12918;BMP180;6526;54.312;13.092;2023-01-28T06:30:53;103095.00;;;4.60
12918;BMP180;6526;54.312;13.092;2023-01-28T06:33:20;103083.00;;;4.40
12918;BMP180;6526;54.312;13.092;2023-01-28T06:35:47;103093.00;;;4.30
12918;BMP180;6526;54.312;13.092;2023-01-28T06:38:13;103099.00;;;4.20
12918;BMP180;6526;54.312;13.092;2023-01-28T06:40:39;103101.00;;;4.30
12918;BMP180;6526;54.312;13.092;2023-01-28T06:43:06;103093.00;;;4.30
12918;BMP180;6526;54.312;13.092;2023-01-28T06:45:32;103064.00;;;4.30
12918;BMP180;6526;54.312;13.092;2023-01-28T06:47:59;103086.00;;;4.20
12918;BMP180;6526;54.312;13.092;2023-01-28T06:50:25;103089.00;;;4.30
12918;BMP180;6526;54.312;13.092;2023-01-28T06:52:51;103107.00;;;4.10
12918;BMP180;6526;54.312;13.092;2023-01-28T06:55:17;103098.00;;;4.10
12918;BMP180;6526;54.312;13.092;2023-01-28T06:57:43;103097.00;;;4.10
12918;BMP180;6526;54.312;13.092;2023-01-28T07:00:11;103099.00;;;4.10
12918;BMP180;6526;54.312;13.092;2023-01-28T07:02:39;103092.00;;;4.10
12918;BMP180;6526;54.312;13.092;2023-01-28T07:05:05;103089.00;;;4.10
12918;BMP180;6526;54.312;13.092;2023-01-28T07:07:32;103097.00;;;4.10
12918;BMP180;6526;54.312;13.092;2023-01-28T07:09:59;103111.00;;;4.10
12918;BMP180;6526;54.312;13.092;2023-01-28T07:12:25;103118.00;;;4.10
12918;BMP180;6526;54.312;13.092;2023-01-28T07:14:51;103106.00;;;4.10
12918;BMP180;6526;54.312;13.092;2023-01-28T07:17:17;103117.00;;;4.10
12918;BMP180;6526;54.312;13.092;2023-01-28T07:19:43;103124.00;;;4.00
12918;BMP180;6526;54.312;13.092;2023-01-28T07:22:09;103121.00;;;4.00
12918;BMP180;6526;54.312;13.092;2023-01-28T07:24:35;103133.00;;;4.00
12918;BMP180;6526;54.312;13.092;2023-01-28T07:27:01;103129.00;;;4.00
12918;BMP180;6526;54.312;13.092;2023-01-28T07:29:28;103144.00;;;4.00
12918;BMP180;6526;54.312;13.092;2023-01-28T07:31:54;103132.00;;;4.10
12918;BMP180;6526;54.312;13.092;2023-01-28T07:34:20;103133.00;;;4.10
12918;BMP180;6526;54.312;13.092;2023-01-28T07:36:46;103132.00;;;4.10
12918;BMP180;6526;54.312;13.092;2023-01-28T07:39:12;103131.00;;;4.00
12918;BMP180;6526;54.312;13.092;2023-01-28T07:41:39;103130.00;;;3.90
12918;BMP180;6526;54.312;13.092;2023-01-28T07:44:05;103133.00;;;4.00
12918;BMP180;6526;54.312;13.092;2023-01-28T07:46:31;103139.00;;;3.90
12918;BMP180;6526;54.312;13.092;2023-01-28T07:48:57;103134.00;;;3.90
12918;BMP180;6526;54.312;13.092;2023-01-28T07:51:23;103129.00;;;3.90
12918;BMP180;6526;54.312;13.092;2023-01-28T07:53:49;103143.00;;;4.00
12918;BMP180;6526;54.312;13.092;2023-01-28T07:56:16;103128.00;;;4.10
12918;BMP180;6526;54.312;13.092;2023-01-28T07:58:42;103134.00;;;4.00
12918;BMP180;6526;54.312;13.092;2023-01-28T08:01:08;103135.00;;;4.00
12918;BMP180;6526;54.312;13.092;2023-01-28T08:03:34;103143.00;;;4.10
12918;BMP180;6526;54.312;13.092;2023-01-28T08:06:00;103130.00;;;4.30
12918;BMP180;6526;54.312;13.092;2023-01-28T08:08:27;103136.00;;;4.20
12918;BMP180;6526;54.312;13.092;2023-01-28T08:10:53;103145.00;;;4.20
12918;BMP180;6526;54.312;13.092;2023-01-28T08:13:19;103164.00;;;4.20
12918;BMP180;6526;54.312;13.092;2023-01-28T08:15:46;103147.00;;;4.20
12918;BMP180;6526;54.312;13.092;2023-01-28T08:18:14;103167.00;;;4.30
12918;BMP180;6526;54.312;13.092;2023-01-28T08:20:41;103170.00;;;4.30
12918;BMP180;6526;54.312;13.092;2023-01-28T08:23:17;103163.00;;;4.30
12918;BMP180;6526;54.312;13.092;2023-01-28T08:25:43;103160.00;;;4.30
12918;BMP180;6526;54.312;13.092;2023-01-28T08:28:11;103178.00;;;4.30
12918;BMP180;6526;54.312;13.092;2023-01-28T08:30:38;103166.00;;;4.30
12918;BMP180;6526;54.312;13.092;2023-01-28T08:33:05;103176.00;;;4.40
12918;BMP180;6526;54.312;13.092;2023-01-28T08:35:33;103177.00;;;4.40
12918;BMP180;6526;54.312;13.092;2023-01-28T08:38:00;103181.00;;;4.60
12918;BMP180;6526;54.312;13.092;2023-01-28T08:40:26;103174.00;;;4.60
12918;BMP180;6526;54.312;13.092;2023-01-28T08:42:53;103189.00;;;4.50
12918;BMP180;6526;54.312;13.092;2023-01-28T08:45:21;103193.00;;;4.50
12918;BMP180;6526;54.312;13.092;2023-01-28T08:47:52;103188.00;;;4.60
12918;BMP180;6526;54.312;13.092;2023-01-28T08:50:20;103184.00;;;4.50
12918;BMP180;6526;54.312;13.092;2023-01-28T08:52:47;103189.00;;;4.60
12918;BMP180;6526;54.312;13.092;2023-01-28T08:55:15;103184.00;;;4.60
12918;BMP180;6526;54.312;13.092;2023-01-28T08:57:41;103183.00;;;4.50
12918;BMP180;6526;54.312;13.092;2023-01-28T09:00:08;103201.00;;;4.70
12918;BMP180;6526;54.312;13.092;2023-01-28T09:02:36;103208.00;;;4.70
12918;BMP180;6526;54.312;13.092;2023-01-28T09:05:03;103203.00;;;4.70
12918;BMP180;6526;54.312;13.092;2023-01-28T09:07:29;103209.00;;;4.80
12918;BMP180;6526;54.312;13.092;2023-01-28T09:09:55;103188.00;;;4.90
12918;BMP180;6526;54.312;13.092;2023-01-28T09:12:21;103188.00;;;5.10
12918;BMP180;6526;54.312;13.092;2023-01-28T09:14:47;103191.00;;;5.10
12918;BMP180;6526;54.312;13.092;2023-01-28T09:17:13;103190.00;;;5.10
12918;BMP180;6526;54.312;13.092;2023-01-28T09:19:39;103198.00;;;5.20
12918;BMP180;6526;54.312;13.092;2023-01-28T09:22:05;103186.00;;;5.20
12918;BMP180;6526;54.312;13.092;2023-01-28T09:24:31;103199.00;;;5.50
12918;BMP180;6526;54.312;13.092;2023-01-28T09:26:57;103205.00;;;5.50
12918;BMP180;6526;54.312;13.092;2023-01-28T09:29:24;103213.00;;;5.50
12918;BMP180;6526;54.312;13.092;2023-01-28T09:31:50;103197.00;;;5.50
12918;BMP180;6526;54.312;13.092;2023-01-28T09:34:16;103203.00;;;5.50
12918;BMP180;6526;54.312;13.092;2023-01-28T09:36:42;103206.00;;;5.50
12918;BMP180;6526;54.312;13.092;2023-01-28T09:39:08;103219.00;;;5.50
12918;BMP180;6526;54.312;13.092;2023-01-28T09:45:00;103220.00;;;5.40
12918;BMP180;6526;54.312;13.092;2023-01-28T09:47:53;103211.00;;;5.40
12918;BMP180;6526;54.312;13.092;2023-01-28T09:52:54;103209.00;;;5.40
12918;BMP180;6526;54.312;13.092;2023-01-28T09:55:35;103221.00;;;5.40
12918;BMP180;6526;54.312;13.092;2023-01-28T09:58:07;103221.00;;;5.50
12918;BMP180;6526;54.312;13.092;2023-01-28T10:00:59;103207.00;;;5.50
12918;BMP180;6526;54.312;13.092;2023-01-28T10:03:59;103220.00;;;5.40
12918;BMP180;6526;54.312;13.092;2023-01-28T10:06:44;103215.00;;;5.30
12918;BMP180;6526;54.312;13.092;2023-01-28T10:17:46;103199.00;;;5.50
12918;BMP180;6526;54.312;13.092;2023-01-28T10:20:26;103192.00;;;5.50
12918;BMP180;6526;54.312;13.092;2023-01-28T10:25:36;103199.00;;;5.70
12918;BMP180;6526;54.312;13.092;2023-01-28T10:28:17;103183.00;;;5.70
12918;BMP180;6526;54.312;13.092;2023-01-28T10:30:44;103188.00;;;5.60
12918;BMP180;6526;54.312;13.092;2023-01-28T10:33:36;103174.00;;;5.60
12918;BMP180;6526;54.312;13.092;2023-01-28T10:36:05;103166.00;;;5.50
12918;BMP180;6526;54.312;13.092;2023-01-28T10:38:32;103163.00;;;5.50
12918;BMP180;6526;54.312;13.092;2023-01-28T10:41:02;103147.00;;;5.50
12918;BMP180;6526;54.312;13.092;2023-01-28T10:43:38;103147.00;;;5.50
12918;BMP180;6526;54.312;13.092;2023-01-28T10:46:22;103123.00;;;5.50
12918;BMP180;6526;54.312;13.092;2023-01-28T10:49:13;103133.00;;;5.50
12918;BMP180;6526;54.312;13.092;2023-01-28T10:51:41;103122.00;;;5.80
12918;BMP180;6526;54.312;13.092;2023-01-28T10:54:22;103127.00;;;5.80
12918;BMP180;6526;54.312;13.092;2023-01-28T10:56:56;103119.00;;;6.10
12918;BMP180;6526;54.312;13.092;2023-01-28T10:59:29;103104.00;;;6.40
12918;BMP180;6526;54.312;13.092;2023-01-28T11:01:56;103103.00;;;6.40
12918;BMP180;6526;54.312;13.092;2023-01-28T11:04:28;103111.00;;;6.50
12918;BMP180;6526;54.312;13.092;2023-01-28T11:06:59;103096.00;;;6.90
12918;BMP180;6526;54.312;13.092;2023-01-28T11:09:30;103111.00;;;7.00
12918;BMP180;6526;54.312;13.092;2023-01-28T11:11:58;103103.00;;;7.00
12918;BMP180;6526;54.312;13.092;2023-01-28T11:14:35;103096.00;;;6.80
12918;BMP180;6526;54.312;13.092;2023-01-28T11:17:01;103093.00;;;6.60
12918;BMP180;6526;54.312;13.092;2023-01-28T11:19:37;103075.00;;;6.40
12918;BMP180;6526;54.312;13.092;2023-01-28T11:22:03;103069.00;;;6.40
12918;BMP180;6526;54.312;13.092;2023-01-28T11:24:31;103063.00;;;6.30
12918;BMP180;6526;54.312;13.092;2023-01-28T11:27:07;103058.00;;;6.60
12918;BMP180;6526;54.312;13.092;2023-01-28T11:29:38;103052.00;;;6.50
12918;BMP180;6526;54.312;13.092;2023-01-28T11:32:05;103040.00;;;6.50
12918;BMP180;6526;54.312;13.092;2023-01-28T11:34:48;103022.00;;;6.40
12918;BMP180;6526;54.312;13.092;2023-01-28T11:37:15;103016.00;;;6.30
12918;BMP180;6526;54.312;13.092;2023-01-28T11:39:41;103021.00;;;6.20
12918;BMP180;6526;54.312;13.092;2023-01-28T11:42:15;103022.00;;;6.10
12918;BMP180;6526;54.312;13.092;2023-01-28T11:44:42;103026.00;;;6.10
12918;BMP180;6526;54.312;13.092;2023-01-28T11:47:36;103039.00;;;6.20
12918;BMP180;6526;54.312;13.092;2023-01-28T11:56:15;103025.00;;;6.30
12918;BMP180;6526;54.312;13.092;2023-01-28T12:04:37;103010.00;;;6.00
12918;BMP180;6526;54.312;13.092;2023-01-28T12:09:56;103010.00;;;6.40
12918;BMP180;6526;54.312;13.092;2023-01-28T12:26:10;103001.00;;;6.40
12918;BMP180;6526;54.312;13.092;2023-01-28T12:37:04;102950.00;;;6.60
12918;BMP180;6526;54.312;13.092;2023-01-28T12:42:36;102972.00;;;6.70
12918;BMP180;6526;54.312;13.092;2023-01-28T12:45:19;102966.00;;;6.80
12918;BMP180;6526;54.312;13.092;2023-01-28T12:48:10;102972.00;;;6.90
12918;BMP180;6526;54.312;13.092;2023-01-28T12:50:46;102966.00;;;6.90
12918;BMP180;6526;54.312;13.092;2023-01-28T12:53:37;102959.00;;;6.80
12918;BMP180;6526;54.312;13.092;2023-01-28T12:56:07;102968.00;;;6.80
12918;BMP180;6526;54.312;13.092;2023-01-28T13:01:40;102981.00;;;6.90
12918;BMP180;6526;54.312;13.092;2023-01-28T13:04:33;102974.00;;;6.80
12918;BMP180;6526;54.312;13.092;2023-01-28T13:07:13;102973.00;;;6.80
12918;BMP180;6526;54.312;13.092;2023-01-28T13:09:51;102970.00;;;6.60
12918;BMP180;6526;54.312;13.092;2023-01-28T13:12:19;102973.00;;;6.60
12918;BMP180;6526;54.312;13.092;2023-01-28T13:14:47;102961.00;;;6.40
12918;BMP180;6526;54.312;13.092;2023-01-28T13:17:30;102975.00;;;6.30
12918;BMP180;6526;54.312;13.092;2023-01-28T13:19:58;102966.00;;;6.30
12918;BMP180;6526;54.312;13.092;2023-01-28T13:22:31;102962.00;;;6.30
12918;BMP180;6526;54.312;13.092;2023-01-28T13:25:21;102962.00;;;6.40
12918;BMP180;6526;54.312;13.092;2023-01-28T13:28:00;102970.00;;;6.50
12918;BMP180;6526;54.312;13.092;2023-01-28T13:30:47;102952.00;;;6.60
12918;BMP180;6526;54.312;13.092;2023-01-28T13:33:30;102961.00;;;6.40
12918;BMP180;6526;54.312;13.092;2023-01-28T13:35:56;102959.00;;;6.40
12918;BMP180;6526;54.312;13.092;2023-01-28T13:38:23;102952.00;;;6.20
12918;BMP180;6526;54.312;13.092;2023-01-28T13:40:57;102953.00;;;6.20
12918;BMP180;6526;54.312;13.092;2023-01-28T13:43:36;102948.00;;;6.20
12918;BMP180;6526;54.312;13.092;2023-01-28T13:46:08;102961.00;;;6.20
12918;BMP180;6526;54.312;13.092;2023-01-28T13:48:45;102978.00;;;6.10
12918;BMP180;6526;54.312;13.092;2023-01-28T13:51:32;102964.00;;;6.00
12918;BMP180;6526;54.312;13.092;2023-01-28T13:54:06;102966.00;;;5.90
12918;BMP180;6526;54.312;13.092;2023-01-28T13:56:56;102976.00;;;5.90
12918;BMP180;6526;54.312;13.092;2023-01-28T14:05:52;102983.00;;;5.80
12918;BMP180;6526;54.312;13.092;2023-01-28T14:08:24;102992.00;;;5.90
12918;BMP180;6526;54.312;13.092;2023-01-28T14:16:21;103000.00;;;5.70
12918;BMP180;6526;54.312;13.092;2023-01-28T14:18:50;103007.00;;;5.60
12918;BMP180;6526;54.312;13.092;2023-01-28T14:21:20;102990.00;;;5.70
12918;BMP180;6526;54.312;13.092;2023-01-28T14:23:51;102988.00;;;5.70
12918;BMP180;6526;54.312;13.092;2023-01-28T14:26:33;102974.00;;;5.80
12918;BMP180;6526;54.312;13.092;2023-01-28T14:29:20;102971.00;;;5.80
12918;BMP180;6526;54.312;13.092;2023-01-28T14:31:48;102974.00;;;6.00
12918;BMP180;6526;54.312;13.092;2023-01-28T14:34:24;102966.00;;;5.90
12918;BMP180;6526;54.312;13.092;2023-01-28T14:36:55;102961.00;;;6.00
12918;BMP180;6526;54.312;13.092;2023-01-28T14:39:25;102983.00;;;6.10
12918;BMP180;6526;54.312;13.092;2023-01-28T14:41:53;102987.00;;;6.10
12918;BMP180;6526;54.312;13.092;2023-01-28T14:44:32;102979.00;;;5.90
12918;BMP180;6526;54.312;13.092;2023-01-28T14:47:29;102979.00;;;6.10
12918;BMP180;6526;54.312;13.092;2023-01-28T14:53:16;102969.00;;;5.80
12918;BMP180;6526;54.312;13.092;2023-01-28T14:55:55;102976.00;;;5.70
12918;BMP180;6526;54.312;13.092;2023-01-28T14:58:31;102969.00;;;5.70
12918;BMP180;6526;54.312;13.092;2023-01-28T15:00:59;102961.00;;;5.70
12918;BMP180;6526;54.312;13.092;2023-01-28T15:03:27;102953.00;;;5.60
12918;BMP180;6526;54.312;13.092;2023-01-28T15:06:14;102940.00;;;5.50
12918;BMP180;6526;54.312;13.092;2023-01-28T15:08:40;102950.00;;;5.60
12918;BMP180;6526;54.312;13.092;2023-01-28T15:11:10;102951.00;;;5.70
12918;BMP180;6526;54.312;13.092;2023-01-28T15:13:44;102961.00;;;5.50
12918;BMP180;6526;54.312;13.092;2023-01-28T15:16:20;102935.00;;;5.50
12918;BMP180;6526;54.312;13.092;2023-01-28T15:18:48;102979.00;;;5.60
12918;BMP180;6526;54.312;13.092;2023-01-28T15:21:19;102975.00;;;5.50
12918;BMP180;6526;54.312;13.092;2023-01-28T15:23:49;102966.00;;;5.50
12918;BMP180;6526;54.312;13.092;2023-01-28T15:26:24;102970.00;;;5.50
12918;BMP180;6526;54.312;13.092;2023-01-28T15:28:52;102964.00;;;5.50
12918;BMP180;6526;54.312;13.092;2023-01-28T15:31:23;102961.00;;;5.40
12918;BMP180;6526;54.312;13.092;2023-01-28T15:34:10;102967.00;;;5.40
12918;BMP180;6526;54.312;13.092;2023-01-28T15:36:36;102963.00;;;5.30
12918;BMP180;6526;54.312;13.092;2023-01-28T15:39:03;102971.00;;;5.30
12918;BMP180;6526;54.312;13.092;2023-01-28T15:41:34;102964.00;;;5.20
12918;BMP180;6526;54.312;13.092;2023-01-28T15:44:03;102976.00;;;5.30
12918;BMP180;6526;54.312;13.092;2023-01-28T15:46:29;102978.00;;;5.30
12918;BMP180;6526;54.312;13.092;2023-01-28T15:48:59;102958.00;;;5.30
12918;BMP180;6526;54.312;13.092;2023-01-28T15:51:28;102964.00;;;5.20
12918;BMP180;6526;54.312;13.092;2023-01-28T15:54:07;102970.00;;;5.30
12918;BMP180;6526;54.312;13.092;2023-01-28T15:56:34;102962.00;;;5.30
12918;BMP180;6526;54.312;13.092;2023-01-28T15:59:18;102963.00;;;5.20
12918;BMP180;6526;54.312;13.092;2023-01-28T16:01:45;102978.00;;;5.40